Time;durP1;ratioP1;P1;durP2;ratioP2;P2;SDS_P1;SDS_P2;PMS_P1;PMS_P2;Temp;Humidity;BMP_temperature;BMP_pressure;BME280_temperature;BME280_humidity;BME280_pressure;Samples;Min_cycle;Max_cycle;Signal;HPM_P1;HPM_P2
2023/07/05 00:02:09;;;;;;;;;9.33;7.33;;;;;17.89;100.00;100824.41;5037631;28;45844;-79
2023/07/05 00:04:34;;;;;;;;;7.00;5.00;;;;;17.85;100.00;100820.06;5037662;28;45765;-79
2023/07/05 00:07:00;;;;;;;;;7.00;7.00;;;;;17.84;100.00;100823.63;5037665;28;48748;-79
2023/07/05 00:09:25;;;;;;;;;7.67;6.67;;;;;17.77;100.00;100826.41;5035452;28;52426;-78
2023/07/05 00:11:50;;;;;;;;;9.33;7.00;;;;;17.75;100.00;100836.25;5036265;28;48697;-79
2023/07/05 00:14:16;;;;;;;;;9.00;7.00;;;;;17.70;100.00;100830.09;5031640;28;45316;-79
2023/07/05 00:16:41;;;;;;;;;8.67;8.00;;;;;17.70;100.00;100837.22;5033347;28;45610;-79
2023/07/05 00:19:07;;;;;;;;;8.67;8.00;;;;;17.66;100.00;100835.50;5037740;28;45415;-78
2023/07/05 00:21:33;;;;;;;;;8.67;7.00;;;;;17.64;100.00;100840.88;5036910;28;47311;-79
2023/07/05 00:23:59;;;;;;;;;8.67;8.67;;;;;17.64;100.00;100842.69;5037638;28;45749;-79
2023/07/05 00:26:25;;;;;;;;;9.00;9.00;;;;;17.62;100.00;100844.47;5037795;28;45481;-79
2023/07/05 00:28:50;;;;;;;;;9.00;7.00;;;;;17.59;100.00;100842.75;5036243;28;45434;-78
2023/07/05 00:31:16;;;;;;;;;8.00;7.00;;;;;17.59;100.00;100848.09;5036896;28;47733;-78
2023/07/05 00:33:41;;;;;;;;;10.33;8.00;;;;;17.56;100.00;100842.78;5037092;28;45338;-78
2023/07/05 00:36:07;;;;;;;;;8.67;7.00;;;;;17.51;100.00;100839.31;5036999;28;56554;-78
2023/07/05 00:38:32;;;;;;;;;10.67;8.00;;;;;17.52;100.00;100851.75;5037829;28;45466;-78
2023/07/05 00:40:58;;;;;;;;;10.67;10.00;;;;;17.53;100.00;100853.53;5036629;28;53502;-78
2023/07/05 00:43:23;;;;;;;;;9.67;8.00;;;;;17.53;100.00;100858.88;5037272;28;45187;-78
2023/07/05 00:45:53;;;;;;;;;9.00;9.00;;;;;17.49;100.00;100857.16;5036858;28;45746;-78
2023/07/05 00:48:21;;;;;;;;;6.00;5.67;;;;;17.45;100.00;100868.78;5034250;28;45424;-78
2023/07/05 00:50:49;;;;;;;;;7.00;7.00;;;;;17.45;100.00;100868.78;5036715;28;46450;-79
2023/07/05 00:53:15;;;;;;;;;10.00;9.00;;;;;17.42;100.00;100861.72;5035534;28;45420;-79
2023/07/05 00:55:47;;;;;;;;;8.00;8.00;;;;;17.42;100.00;100864.41;5036049;28;45505;-78
2023/07/05 00:58:13;;;;;;;;;10.67;8.33;;;;;17.38;100.00;100864.47;5037242;28;45410;-78
2023/07/05 01:00:38;;;;;;;;;10.33;8.00;;;;;17.32;100.00;100869.91;5035964;28;47392;-79
2023/07/05 01:03:07;;;;;;;;;9.00;9.00;;;;;17.33;100.00;100893.03;5033828;28;52301;-78
2023/07/05 01:05:33;;;;;;;;;8.00;7.00;;;;;17.29;100.00;100890.41;5035528;28;45333;-78
2023/07/05 01:07:58;;;;;;;;;12.00;8.00;;;;;17.24;100.00;100908.25;5035111;28;55266;-78
2023/07/05 01:10:24;;;;;;;;;9.00;7.00;;;;;17.21;100.00;100903.00;5035595;28;48827;-78
2023/07/05 01:12:53;;;;;;;;;8.67;8.67;;;;;17.19;100.00;100906.56;5036287;28;45438;-77
2023/07/05 01:15:42;;;;;;;;;7.67;6.67;;;;;17.14;100.00;100897.75;5036203;28;45410;-78
2023/07/05 01:18:26;;;;;;;;;6.67;5.67;;;;;17.15;100.00;100902.16;5021987;28;45550;-78
2023/07/05 01:21:14;;;;;;;;;9.33;7.67;;;;;17.12;100.00;100903.13;5033463;28;46613;-78
2023/07/05 01:24:16;;;;;;;;;5.00;5.00;;;;;17.10;100.00;100904.94;5036327;28;45450;-78
2023/07/05 01:27:03;;;;;;;;;7.67;7.00;;;;;17.07;100.00;100904.97;5037110;28;45319;-78
2023/07/05 01:29:47;;;;;;;;;7.00;7.00;;;;;17.05;100.00;100914.78;5025457;28;45862;-78
2023/07/05 01:32:44;;;;;;;;;8.67;6.33;;;;;17.01;100.00;100902.41;5036325;28;46974;-78
2023/07/05 01:35:29;;;;;;;;;5.33;5.00;;;;;16.99;100.00;100894.44;5035004;28;45366;-78
2023/07/05 01:37:55;;;;;;;;;4.00;4.00;;;;;17.00;100.00;100900.63;5035707;28;45320;-78
2023/07/05 01:40:21;;;;;;;;;7.00;6.00;;;;;17.06;100.00;100911.22;5036606;28;45537;-77
2023/07/05 01:42:47;;;;;;;;;5.00;5.00;;;;;17.10;100.00;100914.69;5036894;28;47493;-78
2023/07/05 01:45:13;;;;;;;;;5.67;5.00;;;;;17.10;100.00;100917.38;5034849;28;45300;-78
2023/07/05 01:47:45;;;;;;;;;5.00;4.67;;;;;17.11;100.00;100914.69;5034662;28;65787;-78
2023/07/05 01:50:21;;;;;;;;;3.67;2.67;;;;;17.11;100.00;100921.81;5036138;28;45237;-77
2023/07/05 01:52:57;;;;;;;;;5.33;2.33;;;;;17.13;100.00;100931.56;5034954;28;47780;-78
2023/07/05 01:56:05;;;;;;;;;8.67;4.00;;;;;17.14;100.00;100938.66;5032752;28;45383;-78
2023/07/05 01:58:35;;;;;;;;;4.00;4.00;;;;;17.11;100.00;100946.72;5036038;28;45343;-78
2023/07/05 02:01:03;;;;;;;;;3.00;3.00;;;;;17.06;100.00;100940.56;5034893;28;45389;-78
2023/07/05 02:03:30;;;;;;;;;6.00;3.67;;;;;16.99;100.00;100944.19;5034709;28;46542;-78
2023/07/05 02:05:55;;;;;;;;;4.00;3.00;;;;;16.90;100.00;100953.22;5018256;28;46079;-78
2023/07/05 02:08:25;;;;;;;;;2.00;2.00;;;;;16.85;100.00;100941.72;5038816;28;45544;-77
2023/07/05 02:10:51;;;;;;;;;2.33;2.33;;;;;16.81;100.00;100942.66;5039446;28;45310;-78
2023/07/05 02:13:18;;;;;;;;;4.00;2.00;;;;;16.73;100.00;100956.09;5038938;28;46243;-78
2023/07/05 02:15:44;;;;;;;;;4.33;2.00;;;;;16.67;100.00;100950.81;5039785;28;45449;-78
2023/07/05 02:18:09;;;;;;;;;2.33;2.33;;;;;16.62;100.00;100944.66;5039467;28;45581;-78
2023/07/05 02:20:35;;;;;;;;;1.33;1.00;;;;;16.60;100.00;100954.44;5038944;28;55209;-77
2023/07/05 02:23:01;;;;;;;;;4.00;2.00;;;;;16.56;100.00;100950.03;5038996;28;47883;-78
2023/07/05 02:25:27;;;;;;;;;6.33;2.00;;;;;16.52;100.00;100952.78;5039482;28;45654;-77
2023/07/05 02:27:52;;;;;;;;;3.00;2.00;;;;;16.55;100.00;100958.94;5038941;28;45450;-78
2023/07/05 02:30:18;;;;;;;;;2.00;2.00;;;;;16.51;100.00;100957.19;5028663;28;45471;-77
2023/07/05 02:32:43;;;;;;;;;2.00;2.00;;;;;16.53;100.00;100949.22;5039163;28;46632;-78
2023/07/05 02:35:09;;;;;;;;;3.00;3.00;;;;;16.49;100.00;100961.69;5039227;28;45455;-77
2023/07/05 02:37:35;;;;;;;;;7.00;1.00;;;;;16.47;100.00;100956.38;5038693;28;45422;-78
2023/07/05 02:40:01;;;;;;;;;3.00;2.00;;;;;16.48;100.00;100959.94;5039263;28;45342;-77
2023/07/05 02:42:26;;;;;;;;;4.00;2.67;;;;;16.49;100.00;100969.69;5039387;28;46525;-78
2023/07/05 02:44:52;;;;;;;;;3.00;2.00;;;;;16.49;100.00;100969.69;5038435;28;45383;-78
2023/07/05 02:47:19;;;;;;;;;5.00;3.67;;;;;16.46;100.00;100967.06;5039456;28;45268;-78
2023/07/05 02:49:45;;;;;;;;;4.00;2.67;;;;;16.47;100.00;100982.16;5039275;28;45255;-78
2023/07/05 02:52:12;;;;;;;;;2.67;2.00;;;;;16.46;100.00;100980.41;5039068;28;46742;-77
2023/07/05 02:54:37;;;;;;;;;3.00;2.33;;;;;16.44;100.00;100975.06;5038723;28;45429;-77
2023/07/05 02:57:03;;;;;;;;;5.00;2.00;;;;;16.47;100.00;100984.81;5039081;28;45537;-78
2023/07/05 02:59:28;;;;;;;;;4.00;2.67;;;;;16.49;100.00;100983.88;5038987;28;45437;-78
2023/07/05 03:01:53;;;;;;;;;3.67;2.00;;;;;16.49;100.00;100999.88;5038602;28;49321;-78
2023/07/05 03:04:19;;;;;;;;;3.00;2.00;;;;;16.49;100.00;100999.00;5036467;28;59541;-78
2023/07/05 03:06:44;;;;;;;;;4.00;3.00;;;;;16.46;100.00;100997.25;5039169;28;45315;-78
2023/07/05 03:09:11;;;;;;;;;3.00;2.00;;;;;16.45;100.00;100998.13;5038114;28;56546;-78
2023/07/05 03:11:37;;;;;;;;;1.67;1.67;;;;;16.44;100.00;101009.69;5038647;28;46642;-78
2023/07/05 03:14:02;;;;;;;;;2.00;2.00;;;;;16.42;100.00;101006.19;5038285;28;45442;-77
2023/07/05 03:16:28;;;;;;;;;3.33;2.00;;;;;16.41;100.00;101006.22;5037804;28;61978;-77
2023/07/05 03:18:54;;;;;;;;;1.33;1.33;;;;;16.37;100.00;101016.00;5038653;28;45470;-77
2023/07/05 03:21:19;;;;;;;;;1.33;1.33;;;;;16.32;100.00;101007.16;5038101;28;46580;-78
2023/07/05 03:23:44;;;;;;;;;3.67;2.00;;;;;16.29;100.00;100996.53;5038297;28;50937;-77
2023/07/05 03:26:10;;;;;;;;;2.00;2.00;;;;;16.29;100.00;101006.31;5038330;28;45340;-78
2023/07/05 03:28:36;;;;;;;;;1.33;1.33;;;;;16.25;100.00;101013.47;5038271;28;45716;-77
2023/07/05 03:31:06;;;;;;;;;1.67;1.00;;;;;16.24;100.00;101019.66;5037934;28;47723;-77
2023/07/05 03:33:33;;;;;;;;;1.00;1.00;;;;;16.21;100.00;101020.59;5038344;28;45359;-77
2023/07/05 03:36:00;;;;;;;;;2.67;2.00;;;;;16.18;100.00;101025.94;5038413;28;45457;-77
2023/07/05 03:38:28;;;;;;;;;1.00;1.00;;;;;16.14;100.00;101023.31;5033335;28;45502;-77
2023/07/05 03:40:58;;;;;;;;;4.33;1.00;;;;;16.16;100.00;101032.19;5037804;28;46480;-78
2023/07/05 03:43:24;;;;;;;;;1.00;1.00;;;;;16.12;100.00;101028.66;5038133;28;45493;-77
2023/07/05 03:45:50;;;;;;;;;4.67;1.00;;;;;16.12;100.00;101035.78;5038133;28;45307;-77
2023/07/05 03:48:15;;;;;;;;;4.00;1.00;;;;;16.12;100.00;101044.66;5038392;28;45328;-78
2023/07/05 03:50:41;;;;;;;;;1.00;1.00;;;;;16.09;100.00;101039.38;5037242;28;59276;-77
2023/07/05 03:53:06;;;;;;;;;1.00;1.00;;;;;16.09;100.00;101035.81;5037419;28;50938;-78
2023/07/05 03:55:35;;;;;;;;;1.67;1.67;;;;;16.07;100.00;101037.59;5037839;28;58522;-77
2023/07/05 03:58:00;;;;;;;;;2.00;1.67;;;;;16.06;100.00;101052.69;5037819;28;45538;-77
2023/07/05 04:00:25;;;;;;;;;2.00;1.00;;;;;16.06;100.00;101051.81;5038046;28;47310;-77
2023/07/05 04:02:51;;;;;;;;;0.00;0.00;;;;;16.05;100.00;101061.59;5035084;28;61367;-77
2023/07/05 04:05:16;;;;;;;;;0.33;0.33;;;;;16.06;100.00;101076.66;5036752;28;45356;-78
2023/07/05 04:07:41;;;;;;;;;2.00;1.00;;;;;16.05;100.00;101069.56;5037577;28;46928;-77
2023/07/05 04:10:07;;;;;;;;;1.67;1.00;;;;;16.08;100.00;101071.31;5018272;28;61693;-78
2023/07/05 04:12:32;;;;;;;;;1.00;1.00;;;;;16.09;100.00;101083.75;5034756;28;45557;-77
2023/07/05 04:14:58;;;;;;;;;4.67;1.00;;;;;16.11;100.00;101074.84;5037269;28;50609;-77
2023/07/05 04:17:23;;;;;;;;;2.67;2.67;;;;;16.13;100.00;101082.81;5037360;28;55522;-77
2023/07/05 04:19:48;;;;;;;;;5.67;1.00;;;;;16.15;100.00;101089.03;5037120;28;47645;-77
2023/07/05 04:22:14;;;;;;;;;1.00;1.00;;;;;16.13;100.00;101081.03;5037476;28;50508;-78
2023/07/05 04:24:39;;;;;;;;;2.00;1.00;;;;;16.13;100.00;101096.13;5037677;28;45358;-78
2023/07/05 04:27:05;;;;;;;;;1.00;1.00;;;;;16.16;100.00;101099.69;5037297;28;45910;-77
2023/07/05 04:29:30;;;;;;;;;4.00;1.00;;;;;16.17;100.00;101096.09;5034901;28;46403;-77
2023/07/05 04:31:55;;;;;;;;;0.00;0.00;;;;;16.15;100.00;101095.25;5037183;28;45825;-77
2023/07/05 04:34:21;;;;;;;;;2.00;1.00;;;;;16.13;100.00;101107.69;5036491;28;62714;-77
2023/07/05 04:36:46;;;;;;;;;1.33;1.33;;;;;16.16;100.00;101110.34;5036754;28;61145;-77
2023/07/05 04:39:11;;;;;;;;;1.67;1.67;;;;;16.17;100.00;101106.75;5036609;28;68399;-77
2023/07/05 04:41:37;;;;;;;;;2.00;2.00;;;;;16.19;100.00;101104.06;5037408;28;45501;-77
2023/07/05 04:44:04;;;;;;;;;2.00;2.00;;;;;16.24;100.00;101111.19;5037430;28;47036;-77
2023/07/05 04:46:30;;;;;;;;;4.00;1.33;;;;;16.25;100.00;101112.06;5037362;28;45309;-78
2023/07/05 04:48:55;;;;;;;;;2.00;1.00;;;;;16.27;100.00;101101.38;5037070;28;47441;-77
2023/07/05 04:51:20;;;;;;;;;1.00;1.00;;;;;16.26;100.00;101107.59;5036427;28;65897;-77
2023/07/05 04:53:46;;;;;;;;;4.67;2.00;;;;;16.26;100.00;101107.59;5035980;28;45347;-76
2023/07/05 04:56:12;;;;;;;;;2.33;2.00;;;;;16.23;100.00;101106.72;5037538;28;45303;-77
2023/07/05 04:58:38;;;;;;;;;2.67;2.67;;;;;16.26;100.00;101121.81;5036532;28;46693;-77
2023/07/05 05:01:04;;;;;;;;;4.00;3.00;;;;;16.26;100.00;101118.25;5037237;28;46566;-77
2023/07/05 05:03:29;;;;;;;;;1.00;1.00;;;;;16.26;100.00;101115.59;5035162;28;45295;-77
2023/07/05 05:05:55;;;;;;;;;3.33;2.33;;;;;16.20;100.00;101116.53;5036185;28;45360;-78
2023/07/05 05:08:22;;;;;;;;;3.67;1.00;;;;;16.19;100.00;101122.72;5036640;28;51489;-77
2023/07/05 05:10:52;;;;;;;;;2.00;2.00;;;;;16.19;100.00;101133.38;5036750;28;45660;-77
2023/07/05 05:13:17;;;;;;;;;2.33;2.00;;;;;16.18;100.00;101127.19;5135245;22;45351;-76
2023/07/05 05:15:43;;;;;;;;;3.00;3.00;;;;;16.17;100.00;101128.06;5035169;28;57534;-76
2023/07/05 05:18:09;;;;;;;;;4.67;3.00;;;;;16.14;100.00;101120.13;5035904;28;69476;-76
2023/07/05 05:20:38;;;;;;;;;4.00;3.00;;;;;16.20;100.00;101136.06;5036658;28;45473;-77
2023/07/05 05:23:03;;;;;;;;;7.00;4.00;;;;;16.22;100.00;101128.06;5036602;28;45422;-77
2023/07/05 05:25:28;;;;;;;;;5.00;4.00;;;;;16.29;100.00;101140.41;5037026;28;45635;-76
2023/07/05 05:27:54;;;;;;;;;5.33;4.67;;;;;16.38;100.00;101134.16;5036095;28;46751;-76
2023/07/05 05:30:19;;;;;;;;;4.67;4.67;;;;;16.46;100.00;101137.66;5033306;28;67046;-78
2023/07/05 05:32:46;;;;;;;;;7.67;3.00;;;;;16.55;100.00;101140.22;5034552;28;59280;-77
2023/07/05 05:35:12;;;;;;;;;5.67;4.00;;;;;16.69;100.00;101143.66;5012037;28;45368;-77
2023/07/05 05:37:37;;;;;;;;;2.67;2.67;;;;;16.79;100.00;101140.94;5035997;28;45461;-77
2023/07/05 05:40:05;;;;;;;;;9.00;4.33;;;;;16.86;100.00;101137.31;5034784;28;45357;-77
2023/07/05 05:42:30;;;;;;;;;2.00;2.00;;;;;16.93;100.00;101141.66;5035431;28;45308;-77
2023/07/05 05:44:56;;;;;;;;;4.33;3.00;;;;;16.97;100.00;101130.06;5034717;28;62454;-76
2023/07/05 05:47:21;;;;;;;;;5.67;4.00;;;;;16.98;100.00;101129.16;5035296;28;67808;-76
2023/07/05 05:49:46;;;;;;;;;3.00;3.00;;;;;17.02;100.00;101138.91;5035595;28;53110;-79
2023/07/05 05:52:12;;;;;;;;;4.67;2.67;;;;;17.04;100.00;101139.78;5035264;28;64378;-80
2023/07/05 05:54:37;;;;;;;;;2.00;2.00;;;;;17.09;100.00;101142.38;5034909;28;59309;-78
2023/07/05 05:57:03;;;;;;;;;3.00;2.00;;;;;17.10;100.00;101146.81;5033825;28;46177;-80
2023/07/05 05:59:28;;;;;;;;;4.00;3.00;;;;;17.07;100.00;101136.19;5018388;28;45486;-80
2023/07/05 06:01:54;;;;;;;;;4.67;2.33;;;;;17.09;100.00;101143.28;5033111;28;45825;-76
2023/07/05 06:04:19;;;;;;;;;3.67;2.00;;;;;17.07;100.00;101158.44;5033482;28;45482;-78
2023/07/05 06:06:44;;;;;;;;;5.33;2.00;;;;;17.10;100.00;101158.41;5034373;28;58891;-77
2023/07/05 06:09:10;;;;;;;;;4.00;2.00;;;;;17.18;100.00;101161.84;5033959;28;68005;-77
2023/07/05 06:11:35;;;;;;;;;2.67;2.67;;;;;17.27;100.00;101168.91;5035060;28;45246;-77
2023/07/05 06:14:01;;;;;;;;;5.33;2.67;;;;;17.35;100.00;101163.44;5035898;28;45499;-78
2023/07/05 06:16:26;;;;;;;;;2.33;2.00;;;;;17.39;100.00;101173.19;5034826;28;47290;-76
2023/07/05 06:18:52;;;;;;;;;3.33;1.67;;;;;17.42;100.00;101160.72;5035206;28;45438;-76
2023/07/05 06:21:17;;;;;;;;;3.33;2.00;;;;;17.41;100.00;101168.72;5030945;28;58064;-76
2023/07/05 06:23:42;;;;;;;;;2.00;2.00;;;;;17.45;100.00;101166.00;5026347;28;64675;-75
2023/07/05 06:26:08;;;;;;;;;4.67;2.00;;;;;17.42;100.00;101165.16;5029468;28;57085;-74
2023/07/05 06:28:34;;;;;;;;;3.67;2.67;;;;;17.36;100.00;101170.56;5034260;28;45358;-74
2023/07/05 06:31:07;;;;;;;;;5.00;2.00;;;;;17.28;100.00;101163.53;5030640;28;47489;-74
2023/07/05 06:33:33;;;;;;;;;2.00;2.00;;;;;17.21;100.00;101167.19;5030088;28;45613;-74
2023/07/05 06:36:01;;;;;;;;;5.00;2.00;;;;;17.29;100.00;101167.97;5027772;28;53387;-74
2023/07/05 06:38:27;;;;;;;;;2.33;2.00;;;;;17.29;100.00;101162.63;5023373;28;45505;-73
2023/07/05 06:40:53;;;;;;;;;2.33;2.33;;;;;17.26;100.00;101160.00;5026066;28;45402;-74
2023/07/05 06:43:20;;;;;;;;;3.67;3.00;;;;;17.26;100.00;101176.03;5032663;28;45261;-75
2023/07/05 06:45:49;;;;;;;;;5.67;3.00;;;;;17.34;100.00;101178.59;5032095;28;46474;-75
2023/07/05 06:48:15;;;;;;;;;4.00;2.00;;;;;17.43;100.00;101172.28;5029270;28;45301;-74
2023/07/05 06:50:40;;;;;;;;;7.33;3.00;;;;;17.52;100.00;101188.16;5034186;28;45327;-75
2023/07/05 06:53:06;;;;;;;;;5.33;2.00;;;;;17.62;100.00;101181.81;5032522;28;60657;-75
2023/07/05 06:55:31;;;;;;;;;2.00;2.00;;;;;17.70;100.00;101185.28;5030241;28;46573;-74
2023/07/05 06:57:56;;;;;;;;;1.00;1.00;;;;;17.76;100.00;101193.25;5029622;28;65045;-74
2023/07/05 07:00:22;;;;;;;;;2.33;2.33;;;;;17.79;100.00;101198.56;5031107;28;63241;-75
2023/07/05 07:02:47;;;;;;;;;3.00;2.00;;;;;17.82;100.00;101200.28;5030533;28;45621;-74
2023/07/05 07:05:13;;;;;;;;;5.33;4.00;;;;;17.89;100.00;101201.97;5037449;28;66651;-74
2023/07/05 07:07:39;;;;;;;;;2.00;2.00;;;;;17.94;100.00;101213.47;5038199;28;45450;-74
2023/07/05 07:10:05;;;;;;;;;4.00;4.00;;;;;17.98;100.00;101204.53;5029240;28;48209;-74
2023/07/05 07:12:30;;;;;;;;;4.00;3.00;;;;;18.01;100.00;101203.63;5035332;28;45394;-74
2023/07/05 07:14:55;;;;;;;;;6.00;3.00;;;;;18.09;100.00;101215.06;5036591;28;54836;-75
2023/07/05 07:17:21;;;;;;;;;3.33;3.00;;;;;18.15;100.00;101214.97;5032048;28;45384;-76
2023/07/05 07:19:46;;;;;;;;;6.00;4.33;;;;;18.19;100.00;101214.03;5033019;28;54132;-74
2023/07/05 07:22:11;;;;;;;;;5.00;3.00;;;;;18.18;100.00;101209.59;5032430;28;45435;-75
2023/07/05 07:24:37;;;;;;;;;4.00;4.00;;;;;18.22;100.00;101223.81;5031393;28;63415;-75
2023/07/05 07:27:03;;;;;;;;;4.00;3.00;;;;;18.21;100.00;101225.56;5031852;28;45496;-75
2023/07/05 07:29:29;;;;;;;;;4.00;3.00;;;;;18.20;100.00;101223.81;5027242;28;45537;-75
2023/07/05 07:31:54;;;;;;;;;5.00;2.00;;;;;18.23;100.00;101222.91;5027520;28;46914;-75
2023/07/05 07:34:20;;;;;;;;;4.00;3.00;;;;;18.27;100.00;101221.97;5033966;28;61953;-75
2023/07/05 07:36:45;;;;;;;;;2.00;2.00;;;;;18.43;100.00;101233.28;5031886;28;45414;-76
2023/07/05 07:39:10;;;;;;;;;2.33;2.00;;;;;18.50;100.00;101229.63;5028535;28;45359;-75
2023/07/05 07:41:37;;;;;;;;;2.00;2.00;;;;;18.54;100.00;101231.38;5035159;28;45350;-76
2023/07/05 07:44:08;;;;;;;;;3.33;3.00;;;;;18.62;100.00;101233.91;5036216;28;46541;-75
2023/07/05 07:46:35;;;;;;;;;5.00;3.33;;;;;18.66;100.00;101239.19;5037317;28;45359;-75
2023/07/05 07:49:02;;;;;;;;;2.00;2.00;;;;;18.74;100.00;101244.44;5027888;28;45577;-76
2023/07/05 07:51:30;;;;;;;;;2.67;2.00;;;;;18.79;100.00;101248.78;5033456;28;45589;-75
2023/07/05 07:53:56;;;;;;;;;3.67;3.00;;;;;18.85;100.00;101250.50;5033810;28;46553;-76
2023/07/05 07:56:23;;;;;;;;;4.00;4.00;;;;;18.90;100.00;101256.66;5037824;28;45497;-76
2023/07/05 07:58:51;;;;;;;;;3.67;3.00;;;;;18.91;100.00;101255.75;5035063;28;45319;-76
2023/07/05 08:01:38;;;;;;;;;3.00;3.00;;;;;18.93;100.00;101251.25;5037888;28;45315;-75
2023/07/05 08:04:06;;;;;;;;;2.67;2.00;;;;;18.97;100.00;101246.75;5031835;28;48072;-75
2023/07/05 08:06:38;;;;;;;;;6.00;2.00;;;;;18.98;100.00;101252.06;5029699;28;45536;-76
2023/07/05 08:09:10;;;;;;;;;5.00;2.00;;;;;18.96;100.00;101242.28;5037598;28;45312;-76
2023/07/05 08:11:35;;;;;;;;;4.33;2.33;;;;;18.91;100.00;101236.13;5038487;28;45339;-77
2023/07/05 08:14:01;;;;;;;;;5.33;2.00;;;;;18.87;100.00;101246.00;5037190;28;46379;-77
2023/07/05 08:16:26;;;;;;;;;2.67;2.67;;;;;18.83;100.00;101239.81;5037249;28;45232;-75
2023/07/05 08:18:52;;;;;;;;;2.33;1.00;;;;;18.82;100.00;101242.53;5035837;28;45842;-78
2023/07/05 08:21:18;;;;;;;;;4.00;2.00;;;;;18.81;100.00;101235.41;5037760;28;45632;-76
2023/07/05 08:23:44;;;;;;;;;1.33;1.33;;;;;18.83;100.00;101234.47;5037144;28;47264;-76
2023/07/05 08:26:11;;;;;;;;;4.67;3.00;;;;;18.78;100.00;101243.47;5037924;28;46725;-76
2023/07/05 08:28:37;;;;;;;;;4.00;3.00;;;;;18.74;100.00;101239.97;5037497;28;45398;-75
2023/07/05 08:31:04;;;;;;;;;4.33;3.00;;;;;18.86;100.00;101257.63;5036878;28;45327;-78
2023/07/05 08:33:31;;;;;;;;;3.00;2.00;;;;;18.98;100.00;101248.50;5037315;28;46502;-76
2023/07/05 08:36:05;;;;;;;;;2.33;2.33;;;;;19.07;100.00;101249.25;5038027;28;45329;-78
2023/07/05 08:38:31;;;;;;;;;4.00;2.00;;;;;19.18;100.00;101258.88;5026432;28;45866;-74
2023/07/05 08:41:21;;;;;;;;;3.00;2.00;;;;;19.33;100.00;101255.91;5037817;28;45260;-75
2023/07/05 08:43:59;;;;;;;;;4.00;1.33;;;;;19.55;100.00;101267.13;5035782;28;47317;-75
2023/07/05 08:46:26;;;;;;;;;2.33;2.33;;;;;19.62;100.00;101268.78;5036361;28;45375;-75
2023/07/05 08:48:59;;;;;;;;;2.33;2.33;;;;;19.57;100.00;101274.19;5035976;28;45356;-75
2023/07/05 08:51:24;;;;;;;;;2.00;2.00;;;;;19.61;100.00;101275.06;5037209;28;45524;-76
2023/07/05 08:53:55;;;;;;;;;4.33;2.33;;;;;19.67;100.00;101274.94;5034840;28;61183;-75
2023/07/05 08:56:31;;;;;;;;;1.67;1.67;;;;;19.69;100.00;101281.16;5029767;28;45251;-74
2023/07/05 08:59:01;;;;;;;;;6.00;4.00;;;;;19.76;100.00;101285.50;5032114;28;45189;-74
2023/07/05 09:01:29;;;;;;;;;4.67;2.33;;;;;19.87;100.00;101287.97;5034654;28;45664;-74
2023/07/05 09:03:56;;;;;;;;;2.67;2.67;;;;;19.99;100.00;101294.88;5030669;28;47597;-74
2023/07/05 09:06:40;;;;;;;;;3.67;2.67;;;;;20.02;100.00;101287.63;5033374;28;45443;-74
2023/07/05 09:09:24;;;;;;;;;3.00;3.00;;;;;20.05;100.00;101292.94;5032539;28;45514;-75
2023/07/05 09:11:58;;;;;;;;;2.33;2.33;;;;;19.97;100.00;101292.19;5035437;28;45466;-75
2023/07/05 09:14:48;;;;;;;;;2.67;2.67;;;;;19.95;100.00;101290.47;5035070;28;46254;-75
2023/07/05 09:17:20;;;;;;;;;4.33;2.33;;;;;19.93;100.00;101290.50;5031648;28;45624;-75
2023/07/05 09:19:51;;;;;;;;;4.33;2.67;;;;;19.97;100.00;101286.81;5030270;28;45366;-74
2023/07/05 09:22:26;;;;;;;;;1.67;1.67;;;;;19.96;100.00;101289.56;5036598;28;46684;-74
2023/07/05 09:24:53;;;;;;;;;2.33;2.33;;;;;19.89;100.00;101284.31;5032211;28;46430;-75
2023/07/05 09:27:39;;;;;;;;;2.00;2.00;;;;;19.84;100.00;101279.97;5035691;28;45529;-74
2023/07/05 09:30:08;;;;;;;;;3.67;2.00;;;;;19.79;100.00;101281.84;5032265;28;45455;-74
2023/07/05 09:32:39;;;;;;;;;3.67;2.00;;;;;19.73;100.00;101290.00;5036271;28;45637;-74
2023/07/05 09:35:13;;;;;;;;;3.67;2.00;;;;;19.62;100.00;101280.38;5032333;28;47412;-75
2023/07/05 09:37:48;;;;;;;;;3.00;1.67;;;;;19.57;100.00;101276.88;5033869;28;45506;-74
2023/07/05 09:40:20;;;;;;;;;4.00;2.67;;;;;19.60;100.00;101278.63;5021976;28;45412;-74
2023/07/05 09:42:50;;;;;;;;;3.00;3.00;;;;;19.68;100.00;101276.72;5034644;28;45504;-76
2023/07/05 09:45:17;;;;;;;;;7.67;3.00;;;;;19.89;100.00;101278.97;5025561;28;46778;-75
2023/07/05 09:47:45;;;;;;;;;5.33;1.67;;;;;20.11;100.00;101270.47;5034831;28;45413;-75
2023/07/05 09:50:16;;;;;;;;;4.00;2.33;;;;;20.21;100.00;101277.41;5035135;28;45526;-74
2023/07/05 09:52:43;;;;;;;;;2.00;2.00;;;;;20.30;100.00;101277.22;5030025;28;46663;-75
2023/07/05 09:55:13;;;;;;;;;3.00;1.00;;;;;20.41;100.00;101291.25;5036290;28;47441;-74
2023/07/05 09:57:38;;;;;;;;;4.00;2.00;;;;;20.50;100.00;101281.25;5034803;28;45501;-76
2023/07/05 10:00:05;;;;;;;;;4.00;3.33;;;;;20.59;100.00;101281.94;5034999;28;45234;-74
2023/07/05 10:02:31;;;;;;;;;2.00;1.00;;;;;20.73;100.00;101287.00;5032939;28;45461;-74
2023/07/05 10:05:13;;;;;;;;;1.67;1.67;;;;;20.77;100.00;101280.59;5036205;28;47320;-74
2023/07/05 10:08:01;;;;;;;;;3.00;2.00;;;;;20.69;100.00;101281.72;5036130;28;45469;-74
2023/07/05 10:10:40;;;;;;;;;3.00;3.00;;;;;20.57;100.00;101290.94;5036354;28;45623;-75
2023/07/05 10:13:25;;;;;;;;;2.00;2.00;;;;;20.51;100.00;101299.16;5034915;28;45261;-74
2023/07/05 10:15:52;;;;;;;;;2.00;2.00;;;;;20.55;100.00;101298.13;5035737;28;47388;-75
2023/07/05 10:18:26;;;;;;;;;3.00;2.00;;;;;20.77;100.00;101302.06;5034704;28;45503;-76
2023/07/05 10:20:52;;;;;;;;;4.00;3.00;;;;;20.98;100.00;101295.31;5030581;28;45729;-74
2023/07/05 10:23:22;;;;;;;;;4.00;2.33;;;;;21.21;100.00;101291.19;5035841;28;45230;-75
2023/07/05 10:25:48;;;;;;;;;3.33;3.00;;;;;21.36;100.00;101291.72;5035105;28;46245;-75
2023/07/05 10:28:16;;;;;;;;;4.33;4.00;;;;;21.47;100.00;101294.09;5035572;28;45995;-75
2023/07/05 10:30:59;;;;;;;;;5.67;3.00;;;;;21.54;100.00;101289.44;5039749;28;45169;-75
2023/07/05 10:33:25;;;;;;;;;2.67;2.67;;;;;21.63;100.00;101294.59;5030333;28;45285;-74
2023/07/05 10:35:58;;;;;;;;;26.67;20.67;;;;;21.68;100.00;101279.22;5038973;28;46400;-74
2023/07/05 10:38:29;;;;;;;;;52.25;41.50;;;;;21.73;100.00;101292.50;5039158;28;45288;-75
2023/07/05 10:41:00;;;;;;;;;11.00;8.00;;;;;21.71;100.00;101300.59;5039184;28;45368;-74
2023/07/05 10:43:27;;;;;;;;;6.00;4.33;;;;;21.79;100.00;101301.28;5039323;28;45307;-75
2023/07/05 10:45:53;;;;;;;;;4.00;4.00;;;;;21.86;100.00;101302.88;5037362;28;47427;-75
2023/07/05 10:48:29;;;;;;;;;1.00;1.00;;;;;21.90;100.00;101309.94;5038919;28;45196;-75
2023/07/05 10:50:55;;;;;;;;;3.33;3.33;;;;;21.93;100.00;101304.44;5037803;28;45538;-75
2023/07/05 10:53:25;;;;;;;;;2.00;1.00;;;;;21.90;100.00;101304.56;5035070;28;62177;-75
2023/07/05 10:56:03;;;;;;;;;6.33;6.33;;;;;21.86;100.00;101302.88;5037839;28;46807;-74
2023/07/05 10:58:37;;;;;;;;;104.50;88.00;;;;;21.85;100.00;101298.44;5038793;28;45727;-74
2023/07/05 11:01:22;;;;;;;;;11.00;8.00;;;;;21.98;100.00;101301.63;5037567;28;45332;-75
2023/07/05 11:03:53;;;;;;;;;15.00;15.00;;;;;22.17;100.00;101299.34;5037465;28;45591;-74
2023/07/05 11:06:19;;;;;;;;;4.00;4.00;;;;;22.39;100.00;101294.19;5037406;28;46820;-74
2023/07/05 11:08:45;;;;;;;;;1.67;1.00;;;;;22.50;100.00;101278.59;5038691;28;45387;-74
2023/07/05 11:11:19;;;;;;;;;4.00;3.67;;;;;22.61;100.00;101281.81;5037230;28;45344;-74
2023/07/05 11:13:46;;;;;;;;;3.00;1.67;;;;;22.69;100.00;101277.09;5037482;28;45406;-76
2023/07/05 11:16:17;;;;;;;;;4.00;4.00;;;;;22.78;100.00;101281.28;5037134;28;47825;-74
2023/07/05 11:18:43;;;;;;;;;4.00;2.00;;;;;22.84;100.00;101277.50;5038677;28;45332;-74
2023/07/05 11:21:32;;;;;;;;;2.00;2.00;;;;;22.90;100.00;101275.50;5038460;28;45454;-75
2023/07/05 11:23:58;;;;;;;;;2.33;2.33;;;;;22.93;100.00;101272.72;5037820;28;45474;-75